sensor_id;sensor_type;location;lat;lon;timestamp;P1;durP1;ratioP1;P2;durP2;ratioP2
4517;SDS011;2271;49.464;11.070;2023-08-30T00:01:32;4.15;;;2.55;;
4517;SDS011;2271;49.464;11.070;2023-08-30T00:03:58;4.20;;;2.40;;
4517;SDS011;2271;49.464;11.070;2023-08-30T00:06:23;3.17;;;2.20;;
4517;SDS011;2271;49.464;11.070;2023-08-30T00:08:49;3.40;;;2.92;;
4517;SDS011;2271;49.464;11.070;2023-08-30T00:11:14;3.38;;;3.08;;
4517;SDS011;2271;49.464;11.070;2023-08-30T00:13:40;3.38;;;2.70;;
4517;SDS011;2271;49.464;11.070;2023-08-30T00:16:07;3.50;;;3.10;;
4517;SDS011;2271;49.464;11.070;2023-08-30T00:18:33;4.78;;;3.45;;
4517;SDS011;2271;49.464;11.070;2023-08-30T00:20:58;4.00;;;2.92;;
4517;SDS011;2271;49.464;11.070;2023-08-30T00:23:24;3.05;;;2.75;;
4517;SDS011;2271;49.464;11.070;2023-08-30T00:25:50;4.45;;;3.08;;
4517;SDS011;2271;49.464;11.070;2023-08-30T00:28:16;5.93;;;3.47;;
4517;SDS011;2271;49.464;11.070;2023-08-30T00:30:41;3.65;;;3.13;;
4517;SDS011;2271;49.464;11.070;2023-08-30T00:33:07;3.80;;;3.10;;
4517;SDS011;2271;49.464;11.070;2023-08-30T00:35:33;3.47;;;3.17;;
4517;SDS011;2271;49.464;11.070;2023-08-30T00:37:58;8.85;;;2.97;;
4517;SDS011;2271;49.464;11.070;2023-08-30T00:40:24;4.38;;;3.03;;
4517;SDS011;2271;49.464;11.070;2023-08-30T00:42:50;4.25;;;3.00;;
4517;SDS011;2271;49.464;11.070;2023-08-30T00:45:16;4.55;;;2.85;;
4517;SDS011;2271;49.464;11.070;2023-08-30T00:47:42;5.22;;;3.00;;
4517;SDS011;2271;49.464;11.070;2023-08-30T00:50:08;3.22;;;2.40;;
4517;SDS011;2271;49.464;11.070;2023-08-30T00:52:34;3.40;;;2.97;;
4517;SDS011;2271;49.464;11.070;2023-08-30T00:55:00;3.08;;;2.72;;
4517;SDS011;2271;49.464;11.070;2023-08-30T00:57:26;2.85;;;2.63;;
4517;SDS011;2271;49.464;11.070;2023-08-30T00:59:51;3.25;;;2.38;;
4517;SDS011;2271;49.464;11.070;2023-08-30T01:02:19;3.20;;;2.90;;
4517;SDS011;2271;49.464;11.070;2023-08-30T01:04:45;3.63;;;2.75;;
4517;SDS011;2271;49.464;11.070;2023-08-30T01:07:11;2.72;;;2.53;;
4517;SDS011;2271;49.464;11.070;2023-08-30T01:09:36;2.20;;;2.10;;
4517;SDS011;2271;49.464;11.070;2023-08-30T01:17:19;3.10;;;2.75;;
4517;SDS011;2271;49.464;11.070;2023-08-30T01:22:29;2.13;;;1.95;;
4517;SDS011;2271;49.464;11.070;2023-08-30T01:27:52;2.53;;;2.33;;
4517;SDS011;2271;49.464;11.070;2023-08-30T01:30:19;4.68;;;2.35;;
4517;SDS011;2271;49.464;11.070;2023-08-30T01:32:45;3.97;;;2.58;;
4517;SDS011;2271;49.464;11.070;2023-08-30T01:35:12;2.30;;;2.13;;
4517;SDS011;2271;49.464;11.070;2023-08-30T01:37:44;2.30;;;2.13;;
4517;SDS011;2271;49.464;11.070;2023-08-30T01:40:11;3.20;;;2.55;;
4517;SDS011;2271;49.464;11.070;2023-08-30T01:42:38;4.85;;;2.90;;
4517;SDS011;2271;49.464;11.070;2023-08-30T01:45:05;2.88;;;2.60;;
4517;SDS011;2271;49.464;11.070;2023-08-30T01:47:33;8.43;;;2.30;;
4517;SDS011;2271;49.464;11.070;2023-08-30T01:50:01;2.50;;;2.22;;
4517;SDS011;2271;49.464;11.070;2023-08-30T01:52:28;2.10;;;2.00;;
4517;SDS011;2271;49.464;11.070;2023-08-30T01:54:55;3.83;;;2.60;;
4517;SDS011;2271;49.464;11.070;2023-08-30T01:57:22;4.72;;;2.30;;
4517;SDS011;2271;49.464;11.070;2023-08-30T01:59:48;2.40;;;2.20;;
4517;SDS011;2271;49.464;11.070;2023-08-30T02:02:14;3.25;;;2.42;;
4517;SDS011;2271;49.464;11.070;2023-08-30T02:04:39;3.70;;;1.98;;
4517;SDS011;2271;49.464;11.070;2023-08-30T02:07:12;2.78;;;2.40;;
4517;SDS011;2271;49.464;11.070;2023-08-30T02:09:46;3.00;;;2.28;;
4517;SDS011;2271;49.464;11.070;2023-08-30T02:12:16;3.05;;;2.17;;
4517;SDS011;2271;49.464;11.070;2023-08-30T02:14:47;5.03;;;2.38;;
4517;SDS011;2271;49.464;11.070;2023-08-30T02:17:14;1.80;;;1.70;;
4517;SDS011;2271;49.464;11.070;2023-08-30T02:19:41;4.30;;;2.08;;
4517;SDS011;2271;49.464;11.070;2023-08-30T02:22:08;2.58;;;2.38;;
4517;SDS011;2271;49.464;11.070;2023-08-30T02:24:34;3.08;;;2.00;;
4517;SDS011;2271;49.464;11.070;2023-08-30T02:26:59;2.38;;;2.25;;
4517;SDS011;2271;49.464;11.070;2023-08-30T02:29:25;2.95;;;2.17;;
4517;SDS011;2271;49.464;11.070;2023-08-30T02:31:50;4.30;;;1.92;;
4517;SDS011;2271;49.464;11.070;2023-08-30T02:34:16;2.42;;;2.22;;
4517;SDS011;2271;49.464;11.070;2023-08-30T02:36:42;3.90;;;1.95;;
4517;SDS011;2271;49.464;11.070;2023-08-30T02:39:08;2.33;;;2.13;;
4517;SDS011;2271;49.464;11.070;2023-08-30T02:41:33;3.17;;;1.80;;
4517;SDS011;2271;49.464;11.070;2023-08-30T02:43:59;2.20;;;1.88;;
4517;SDS011;2271;49.464;11.070;2023-08-30T02:46:25;2.00;;;1.90;;
4517;SDS011;2271;49.464;11.070;2023-08-30T02:48:51;2.33;;;2.10;;
4517;SDS011;2271;49.464;11.070;2023-08-30T02:51:16;2.08;;;1.88;;
4517;SDS011;2271;49.464;11.070;2023-08-30T02:53:42;2.72;;;2.17;;
4517;SDS011;2271;49.464;11.070;2023-08-30T02:56:08;2.28;;;2.08;;
4517;SDS011;2271;49.464;11.070;2023-08-30T02:58:33;2.35;;;2.05;;
4517;SDS011;2271;49.464;11.070;2023-08-30T03:01:00;5.05;;;1.92;;
4517;SDS011;2271;49.464;11.070;2023-08-30T03:03:27;2.17;;;1.92;;
4517;SDS011;2271;49.464;11.070;2023-08-30T03:05:53;2.88;;;2.20;;
4517;SDS011;2271;49.464;11.070;2023-08-30T03:08:18;3.13;;;2.15;;
4517;SDS011;2271;49.464;11.070;2023-08-30T03:10:44;2.40;;;2.20;;
4517;SDS011;2271;49.464;11.070;2023-08-30T03:13:10;2.67;;;2.00;;
4517;SDS011;2271;49.464;11.070;2023-08-30T03:15:35;4.82;;;2.40;;
4517;SDS011;2271;49.464;11.070;2023-08-30T03:18:01;2.67;;;2.47;;
4517;SDS011;2271;49.464;11.070;2023-08-30T03:20:27;2.13;;;2.03;;
4517;SDS011;2271;49.464;11.070;2023-08-30T03:22:55;2.38;;;2.05;;
4517;SDS011;2271;49.464;11.070;2023-08-30T03:25:23;3.53;;;2.15;;
4517;SDS011;2271;49.464;11.070;2023-08-30T03:27:49;2.20;;;2.00;;
4517;SDS011;2271;49.464;11.070;2023-08-30T03:30:17;4.38;;;2.30;;
4517;SDS011;2271;49.464;11.070;2023-08-30T03:32:43;2.28;;;2.08;;
4517;SDS011;2271;49.464;11.070;2023-08-30T03:35:09;3.95;;;2.30;;
4517;SDS011;2271;49.464;11.070;2023-08-30T03:37:35;4.20;;;2.47;;
4517;SDS011;2271;49.464;11.070;2023-08-30T03:40:00;2.95;;;2.25;;
4517;SDS011;2271;49.464;11.070;2023-08-30T03:42:26;2.70;;;2.50;;
4517;SDS011;2271;49.464;11.070;2023-08-30T03:44:52;2.78;;;2.58;;
4517;SDS011;2271;49.464;11.070;2023-08-30T03:47:18;2.83;;;2.60;;
4517;SDS011;2271;49.464;11.070;2023-08-30T03:49:44;3.17;;;2.88;;
4517;SDS011;2271;49.464;11.070;2023-08-30T03:52:09;2.67;;;2.47;;
4517;SDS011;2271;49.464;11.070;2023-08-30T03:54:35;4.82;;;2.67;;
4517;SDS011;2271;49.464;11.070;2023-08-30T03:57:01;2.83;;;2.63;;
4517;SDS011;2271;49.464;11.070;2023-08-30T03:59:27;2.92;;;2.55;;
4517;SDS011;2271;49.464;11.070;2023-08-30T04:01:53;2.08;;;1.88;;
4517;SDS011;2271;49.464;11.070;2023-08-30T04:04:19;2.30;;;2.10;;
4517;SDS011;2271;49.464;11.070;2023-08-30T04:06:45;6.35;;;1.95;;
4517;SDS011;2271;49.464;11.070;2023-08-30T04:09:10;3.28;;;2.67;;
4517;SDS011;2271;49.464;11.070;2023-08-30T04:11:36;2.63;;;2.00;;
4517;SDS011;2271;49.464;11.070;2023-08-30T04:14:02;3.33;;;3.03;;
4517;SDS011;2271;49.464;11.070;2023-08-30T04:16:27;2.65;;;2.45;;
4517;SDS011;2271;49.464;11.070;2023-08-30T04:18:53;3.55;;;2.63;;
4517;SDS011;2271;49.464;11.070;2023-08-30T04:21:19;3.63;;;3.33;;
4517;SDS011;2271;49.464;11.070;2023-08-30T04:23:45;4.80;;;3.72;;
4517;SDS011;2271;49.464;11.070;2023-08-30T04:26:10;4.68;;;3.85;;
4517;SDS011;2271;49.464;11.070;2023-08-30T04:28:36;3.80;;;3.50;;
4517;SDS011;2271;49.464;11.070;2023-08-30T04:31:02;5.07;;;3.70;;
4517;SDS011;2271;49.464;11.070;2023-08-30T04:33:28;4.78;;;3.70;;
4517;SDS011;2271;49.464;11.070;2023-08-30T04:35:54;4.90;;;3.13;;
4517;SDS011;2271;49.464;11.070;2023-08-30T04:38:20;3.20;;;2.80;;
4517;SDS011;2271;49.464;11.070;2023-08-30T04:40:46;5.95;;;2.92;;
4517;SDS011;2271;49.464;11.070;2023-08-30T04:43:12;3.35;;;2.65;;
4517;SDS011;2271;49.464;11.070;2023-08-30T04:45:38;2.60;;;2.40;;
4517;SDS011;2271;49.464;11.070;2023-08-30T04:48:04;2.78;;;2.55;;
4517;SDS011;2271;49.464;11.070;2023-08-30T04:50:30;3.15;;;2.53;;
4517;SDS011;2271;49.464;11.070;2023-08-30T04:52:56;6.22;;;2.70;;
4517;SDS011;2271;49.464;11.070;2023-08-30T04:55:27;9.30;;;3.08;;
4517;SDS011;2271;49.464;11.070;2023-08-30T04:57:54;4.80;;;2.72;;
4517;SDS011;2271;49.464;11.070;2023-08-30T05:00:19;3.50;;;3.20;;
4517;SDS011;2271;49.464;11.070;2023-08-30T05:02:45;9.15;;;3.03;;
4517;SDS011;2271;49.464;11.070;2023-08-30T05:05:11;3.55;;;3.25;;
4517;SDS011;2271;49.464;11.070;2023-08-30T05:07:38;5.63;;;3.53;;
4517;SDS011;2271;49.464;11.070;2023-08-30T05:10:04;4.25;;;3.30;;
4517;SDS011;2271;49.464;11.070;2023-08-30T05:12:31;4.93;;;3.03;;
4517;SDS011;2271;49.464;11.070;2023-08-30T05:14:58;3.35;;;3.00;;
4517;SDS011;2271;49.464;11.070;2023-08-30T05:17:24;5.95;;;3.00;;
4517;SDS011;2271;49.464;11.070;2023-08-30T05:19:50;5.32;;;3.80;;
4517;SDS011;2271;49.464;11.070;2023-08-30T05:22:16;3.85;;;3.33;;
4517;SDS011;2271;49.464;11.070;2023-08-30T05:24:41;4.68;;;3.75;;
4517;SDS011;2271;49.464;11.070;2023-08-30T05:27:07;6.15;;;3.67;;
4517;SDS011;2271;49.464;11.070;2023-08-30T05:29:33;8.82;;;3.83;;
4517;SDS011;2271;49.464;11.070;2023-08-30T05:31:59;3.80;;;3.35;;
4517;SDS011;2271;49.464;11.070;2023-08-30T05:34:25;4.93;;;4.32;;
4517;SDS011;2271;49.464;11.070;2023-08-30T05:36:52;9.93;;;3.65;;
4517;SDS011;2271;49.464;11.070;2023-08-30T05:39:18;7.15;;;4.28;;
4517;SDS011;2271;49.464;11.070;2023-08-30T05:41:43;4.68;;;3.97;;
4517;SDS011;2271;49.464;11.070;2023-08-30T05:44:09;4.68;;;4.15;;
4517;SDS011;2271;49.464;11.070;2023-08-30T05:46:35;8.52;;;4.10;;
4517;SDS011;2271;49.464;11.070;2023-08-30T05:49:01;4.30;;;3.90;;
4517;SDS011;2271;49.464;11.070;2023-08-30T05:51:28;4.55;;;4.15;;
4517;SDS011;2271;49.464;11.070;2023-08-30T05:53:54;4.95;;;4.35;;
4517;SDS011;2271;49.464;11.070;2023-08-30T05:56:19;4.43;;;3.72;;
4517;SDS011;2271;49.464;11.070;2023-08-30T05:58:45;6.93;;;5.57;;
4517;SDS011;2271;49.464;11.070;2023-08-30T06:01:11;6.90;;;4.60;;
4517;SDS011;2271;49.464;11.070;2023-08-30T06:03:36;7.97;;;5.90;;
4517;SDS011;2271;49.464;11.070;2023-08-30T06:06:02;10.38;;;7.40;;
4517;SDS011;2271;49.464;11.070;2023-08-30T06:08:28;10.50;;;8.68;;
4517;SDS011;2271;49.464;11.070;2023-08-30T06:10:54;11.30;;;8.98;;
4517;SDS011;2271;49.464;11.070;2023-08-30T06:13:20;10.88;;;8.93;;
4517;SDS011;2271;49.464;11.070;2023-08-30T06:15:49;11.02;;;8.77;;
4517;SDS011;2271;49.464;11.070;2023-08-30T06:18:16;10.10;;;8.48;;
4517;SDS011;2271;49.464;11.070;2023-08-30T06:20:41;9.15;;;7.85;;
4517;SDS011;2271;49.464;11.070;2023-08-30T06:23:07;11.90;;;8.90;;
4517;SDS011;2271;49.464;11.070;2023-08-30T06:25:33;10.38;;;8.55;;
4517;SDS011;2271;49.464;11.070;2023-08-30T06:27:59;9.70;;;8.10;;
4517;SDS011;2271;49.464;11.070;2023-08-30T06:30:26;13.95;;;8.95;;
4517;SDS011;2271;49.464;11.070;2023-08-30T06:32:53;9.95;;;8.73;;
4517;SDS011;2271;49.464;11.070;2023-08-30T06:35:19;10.82;;;9.70;;
4517;SDS011;2271;49.464;11.070;2023-08-30T06:37:45;9.40;;;8.23;;
4517;SDS011;2271;49.464;11.070;2023-08-30T06:40:11;11.77;;;8.68;;
4517;SDS011;2271;49.464;11.070;2023-08-30T06:42:36;10.48;;;9.30;;
4517;SDS011;2271;49.464;11.070;2023-08-30T06:45:03;13.05;;;9.25;;
4517;SDS011;2271;49.464;11.070;2023-08-30T06:47:29;9.50;;;8.43;;
4517;SDS011;2271;49.464;11.070;2023-08-30T06:49:55;11.00;;;8.57;;
4517;SDS011;2271;49.464;11.070;2023-08-30T06:52:20;9.57;;;8.52;;
4517;SDS011;2271;49.464;11.070;2023-08-30T06:54:46;11.98;;;9.40;;
4517;SDS011;2271;49.464;11.070;2023-08-30T06:57:12;11.57;;;9.73;;
4517;SDS011;2271;49.464;11.070;2023-08-30T06:59:38;11.20;;;8.77;;
4517;SDS011;2271;49.464;11.070;2023-08-30T07:02:03;9.38;;;8.48;;
4517;SDS011;2271;49.464;11.070;2023-08-30T07:04:29;10.23;;;8.93;;
4517;SDS011;2271;49.464;11.070;2023-08-30T07:06:55;13.82;;;10.00;;
4517;SDS011;2271;49.464;11.070;2023-08-30T07:09:21;10.15;;;9.15;;
4517;SDS011;2271;49.464;11.070;2023-08-30T07:11:53;11.23;;;9.27;;
4517;SDS011;2271;49.464;11.070;2023-08-30T07:14:18;10.98;;;9.52;;
4517;SDS011;2271;49.464;11.070;2023-08-30T07:16:45;13.85;;;9.23;;
4517;SDS011;2271;49.464;11.070;2023-08-30T07:19:11;10.65;;;9.20;;
4517;SDS011;2271;49.464;11.070;2023-08-30T07:21:37;11.75;;;9.60;;
4517;SDS011;2271;49.464;11.070;2023-08-30T07:24:04;10.73;;;9.02;;
4517;SDS011;2271;49.464;11.070;2023-08-30T07:26:31;10.27;;;8.95;;
4517;SDS011;2271;49.464;11.070;2023-08-30T07:28:56;9.43;;;8.50;;
4517;SDS011;2271;49.464;11.070;2023-08-30T07:31:22;8.63;;;7.82;;
4517;SDS011;2271;49.464;11.070;2023-08-30T07:33:48;10.23;;;9.15;;
4517;SDS011;2271;49.464;11.070;2023-08-30T07:36:13;9.52;;;8.40;;
4517;SDS011;2271;49.464;11.070;2023-08-30T07:38:39;11.88;;;8.77;;
4517;SDS011;2271;49.464;11.070;2023-08-30T07:41:05;14.05;;;8.85;;
4517;SDS011;2271;49.464;11.070;2023-08-30T07:43:30;11.90;;;8.88;;
4517;SDS011;2271;49.464;11.070;2023-08-30T07:45:57;10.10;;;8.98;;
4517;SDS011;2271;49.464;11.070;2023-08-30T07:48:24;12.77;;;9.73;;
4517;SDS011;2271;49.464;11.070;2023-08-30T07:50:50;9.95;;;8.95;;
4517;SDS011;2271;49.464;11.070;2023-08-30T07:53:15;12.68;;;9.18;;
4517;SDS011;2271;49.464;11.070;2023-08-30T07:55:41;12.23;;;10.90;;
4517;SDS011;2271;49.464;11.070;2023-08-30T07:58:07;11.10;;;9.30;;
4517;SDS011;2271;49.464;11.070;2023-08-30T08:00:35;9.05;;;7.80;;
4517;SDS011;2271;49.464;11.070;2023-08-30T08:03:01;10.48;;;9.00;;
4517;SDS011;2271;49.464;11.070;2023-08-30T08:05:27;9.75;;;7.88;;
4517;SDS011;2271;49.464;11.070;2023-08-30T08:07:53;8.65;;;7.68;;
4517;SDS011;2271;49.464;11.070;2023-08-30T08:10:19;8.95;;;7.35;;
4517;SDS011;2271;49.464;11.070;2023-08-30T08:12:45;7.60;;;6.90;;
4517;SDS011;2271;49.464;11.070;2023-08-30T08:15:11;7.75;;;6.40;;
4517;SDS011;2271;49.464;11.070;2023-08-30T08:17:36;7.45;;;6.10;;
4517;SDS011;2271;49.464;11.070;2023-08-30T08:20:03;6.40;;;5.80;;
4517;SDS011;2271;49.464;11.070;2023-08-30T08:22:30;7.55;;;4.60;;
4517;SDS011;2271;49.464;11.070;2023-08-30T08:24:56;6.60;;;5.28;;
4517;SDS011;2271;49.464;11.070;2023-08-30T08:27:22;4.95;;;4.45;;
4517;SDS011;2271;49.464;11.070;2023-08-30T08:29:49;6.15;;;5.25;;
4517;SDS011;2271;49.464;11.070;2023-08-30T08:32:15;7.93;;;5.68;;
4517;SDS011;2271;49.464;11.070;2023-08-30T08:34:41;5.78;;;5.20;;
4517;SDS011;2271;49.464;11.070;2023-08-30T08:37:06;5.65;;;4.45;;
4517;SDS011;2271;49.464;11.070;2023-08-30T08:39:32;6.05;;;5.32;;
4517;SDS011;2271;49.464;11.070;2023-08-30T08:41:59;6.63;;;5.35;;
4517;SDS011;2271;49.464;11.070;2023-08-30T08:44:26;7.10;;;6.40;;
4517;SDS011;2271;49.464;11.070;2023-08-30T08:46:56;7.40;;;6.13;;
4517;SDS011;2271;49.464;11.070;2023-08-30T08:49:22;6.63;;;5.32;;
4517;SDS011;2271;49.464;11.070;2023-08-30T08:51:53;7.88;;;5.93;;
4517;SDS011;2271;49.464;11.070;2023-08-30T08:54:19;8.02;;;5.78;;
4517;SDS011;2271;49.464;11.070;2023-08-30T08:56:45;6.45;;;5.85;;
4517;SDS011;2271;49.464;11.070;2023-08-30T08:59:11;6.93;;;4.60;;
4517;SDS011;2271;49.464;11.070;2023-08-30T09:01:38;5.88;;;5.25;;
4517;SDS011;2271;49.464;11.070;2023-08-30T09:04:09;6.10;;;5.45;;
4517;SDS011;2271;49.464;11.070;2023-08-30T09:06:35;6.85;;;5.45;;
4517;SDS011;2271;49.464;11.070;2023-08-30T09:09:02;7.68;;;4.95;;
4517;SDS011;2271;49.464;11.070;2023-08-30T09:11:33;8.85;;;5.53;;
4517;SDS011;2271;49.464;11.070;2023-08-30T09:13:59;6.35;;;4.80;;
4517;SDS011;2271;49.464;11.070;2023-08-30T09:16:25;5.30;;;4.50;;
4517;SDS011;2271;49.464;11.070;2023-08-30T09:19:00;6.18;;;4.35;;
4517;SDS011;2271;49.464;11.070;2023-08-30T09:21:28;6.68;;;4.05;;
4517;SDS011;2271;49.464;11.070;2023-08-30T09:24:00;5.88;;;5.22;;
4517;SDS011;2271;49.464;11.070;2023-08-30T09:26:27;9.60;;;4.95;;
4517;SDS011;2271;49.464;11.070;2023-08-30T09:29:00;5.32;;;4.80;;
4517;SDS011;2271;49.464;11.070;2023-08-30T09:31:37;8.95;;;5.95;;
4517;SDS011;2271;49.464;11.070;2023-08-30T09:34:07;6.85;;;5.63;;
4517;SDS011;2271;49.464;11.070;2023-08-30T09:36:36;5.53;;;4.75;;
4517;SDS011;2271;49.464;11.070;2023-08-30T09:39:10;5.85;;;5.25;;
4517;SDS011;2271;49.464;11.070;2023-08-30T09:41:40;7.53;;;5.32;;
4517;SDS011;2271;49.464;11.070;2023-08-30T09:49:12;7.28;;;5.55;;
4517;SDS011;2271;49.464;11.070;2023-08-30T09:51:38;6.13;;;5.53;;
4517;SDS011;2271;49.464;11.070;2023-08-30T09:54:26;5.57;;;4.97;;
4517;SDS011;2271;49.464;11.070;2023-08-30T09:56:53;6.45;;;4.70;;
4517;SDS011;2271;49.464;11.070;2023-08-30T09:59:22;8.13;;;4.82;;
4517;SDS011;2271;49.464;11.070;2023-08-30T10:01:48;6.28;;;5.65;;
4517;SDS011;2271;49.464;11.070;2023-08-30T10:04:15;6.13;;;5.15;;
4517;SDS011;2271;49.464;11.070;2023-08-30T10:06:42;8.82;;;5.90;;
4517;SDS011;2271;49.464;11.070;2023-08-30T10:09:08;7.82;;;6.82;;
4517;SDS011;2271;49.464;11.070;2023-08-30T10:11:35;8.95;;;6.10;;
4517;SDS011;2271;49.464;11.070;2023-08-30T10:14:06;8.00;;;7.20;;
4517;SDS011;2271;49.464;11.070;2023-08-30T10:16:45;7.30;;;5.93;;
4517;SDS011;2271;49.464;11.070;2023-08-30T10:19:16;8.77;;;5.95;;
4517;SDS011;2271;49.464;11.070;2023-08-30T10:21:48;11.13;;;7.07;;
4517;SDS011;2271;49.464;11.070;2023-08-30T10:24:29;5.95;;;5.00;;
4517;SDS011;2271;49.464;11.070;2023-08-30T10:27:15;6.68;;;5.95;;
4517;SDS011;2271;49.464;11.070;2023-08-30T10:29:42;7.85;;;5.45;;
4517;SDS011;2271;49.464;11.070;2023-08-30T10:32:09;5.95;;;4.88;;
4517;SDS011;2271;49.464;11.070;2023-08-30T10:34:35;6.32;;;5.47;;
4517;SDS011;2271;49.464;11.070;2023-08-30T10:37:02;6.30;;;5.30;;
4517;SDS011;2271;49.464;11.070;2023-08-30T10:39:35;7.88;;;6.25;;
4517;SDS011;2271;49.464;11.070;2023-08-30T10:42:06;7.75;;;5.72;;
4517;SDS011;2271;49.464;11.070;2023-08-30T10:44:48;6.35;;;5.70;;
4517;SDS011;2271;49.464;11.070;2023-08-30T10:47:17;6.22;;;5.63;;
4517;SDS011;2271;49.464;11.070;2023-08-30T10:49:46;6.43;;;5.57;;
4517;SDS011;2271;49.464;11.070;2023-08-30T10:52:12;9.75;;;6.30;;
4517;SDS011;2271;49.464;11.070;2023-08-30T10:54:37;6.25;;;5.55;;
4517;SDS011;2271;49.464;11.070;2023-08-30T10:57:12;7.93;;;5.75;;
4517;SDS011;2271;49.464;11.070;2023-08-30T10:59:39;10.20;;;6.07;;
4517;SDS011;2271;49.464;11.070;2023-08-30T11:02:05;5.03;;;4.53;;
4517;SDS011;2271;49.464;11.070;2023-08-30T11:04:31;5.15;;;4.40;;
4517;SDS011;2271;49.464;11.070;2023-08-30T11:06:57;4.55;;;3.97;;
4517;SDS011;2271;49.464;11.070;2023-08-30T11:09:24;4.68;;;4.20;;
4517;SDS011;2271;49.464;11.070;2023-08-30T11:11:50;5.85;;;4.82;;
4517;SDS011;2271;49.464;11.070;2023-08-30T11:14:17;6.18;;;4.80;;
4517;SDS011;2271;49.464;11.070;2023-08-30T11:16:43;5.55;;;4.40;;
4517;SDS011;2271;49.464;11.070;2023-08-30T11:19:10;5.90;;;4.60;;
4517;SDS011;2271;49.464;11.070;2023-08-30T11:21:37;4.72;;;4.20;;
4517;SDS011;2271;49.464;11.070;2023-08-30T11:24:04;5.28;;;4.63;;
4517;SDS011;2271;49.464;11.070;2023-08-30T11:26:31;4.30;;;3.90;;
4517;SDS011;2271;49.464;11.070;2023-08-30T11:28:56;7.03;;;4.95;;
4517;SDS011;2271;49.464;11.070;2023-08-30T11:31:23;5.43;;;4.75;;
4517;SDS011;2271;49.464;11.070;2023-08-30T11:33:52;5.30;;;4.00;;
4517;SDS011;2271;49.464;11.070;2023-08-30T11:36:21;4.68;;;4.20;;
4517;SDS011;2271;49.464;11.070;2023-08-30T11:38:47;3.92;;;3.55;;
4517;SDS011;2271;49.464;11.070;2023-08-30T11:41:17;3.83;;;3.53;;
4517;SDS011;2271;49.464;11.070;2023-08-30T11:43:47;3.85;;;3.55;;
4517;SDS011;2271;49.464;11.070;2023-08-30T11:46:13;4.65;;;3.40;;
4517;SDS011;2271;49.464;11.070;2023-08-30T11:48:39;3.72;;;3.28;;
4517;SDS011;2271;49.464;11.070;2023-08-30T11:51:06;5.55;;;4.40;;
4517;SDS011;2271;49.464;11.070;2023-08-30T11:53:33;4.82;;;3.50;;
4517;SDS011;2271;49.464;11.070;2023-08-30T11:55:59;4.15;;;3.35;;
4517;SDS011;2271;49.464;11.070;2023-08-30T11:58:25;5.35;;;3.20;;
4517;SDS011;2271;49.464;11.070;2023-08-30T12:00:52;8.73;;;2.70;;
4517;SDS011;2271;49.464;11.070;2023-08-30T12:03:22;3.95;;;3.55;;
4517;SDS011;2271;49.464;11.070;2023-08-30T12:05:48;3.63;;;3.33;;
4517;SDS011;2271;49.464;11.070;2023-08-30T12:08:33;3.35;;;3.05;;
4517;SDS011;2271;49.464;11.070;2023-08-30T12:10:59;5.43;;;3.17;;
4517;SDS011;2271;49.464;11.070;2023-08-30T12:13:29;4.45;;;3.25;;
4517;SDS011;2271;49.464;11.070;2023-08-30T12:15:59;3.50;;;3.13;;
4517;SDS011;2271;49.464;11.070;2023-08-30T12:18:27;3.10;;;2.80;;
4517;SDS011;2271;49.464;11.070;2023-08-30T12:20:55;4.22;;;3.28;;
4517;SDS011;2271;49.464;11.070;2023-08-30T12:23:22;5.03;;;3.22;;
4517;SDS011;2271;49.464;11.070;2023-08-30T12:26:03;2.92;;;2.70;;
4517;SDS011;2271;49.464;11.070;2023-08-30T12:28:31;3.63;;;2.88;;
4517;SDS011;2271;49.464;11.070;2023-08-30T12:30:58;2.78;;;2.55;;
4517;SDS011;2271;49.464;11.070;2023-08-30T12:33:24;3.78;;;2.22;;
4517;SDS011;2271;49.464;11.070;2023-08-30T12:35:51;3.58;;;2.83;;
4517;SDS011;2271;49.464;11.070;2023-08-30T12:38:17;4.63;;;3.28;;
4517;SDS011;2271;49.464;11.070;2023-08-30T12:40:46;3.20;;;2.92;;
4517;SDS011;2271;49.464;11.070;2023-08-30T12:43:13;5.75;;;3.15;;
4517;SDS011;2271;49.464;11.070;2023-08-30T12:45:39;3.30;;;3.00;;
4517;SDS011;2271;49.464;11.070;2023-08-30T12:48:08;3.22;;;2.92;;
4517;SDS011;2271;49.464;11.070;2023-08-30T12:50:35;2.72;;;2.53;;
4517;SDS011;2271;49.464;11.070;2023-08-30T12:53:05;3.20;;;2.83;;
4517;SDS011;2271;49.464;11.070;2023-08-30T12:55:31;3.20;;;2.90;;
4517;SDS011;2271;49.464;11.070;2023-08-30T12:57:57;3.53;;;3.20;;
4517;SDS011;2271;49.464;11.070;2023-08-30T13:00:23;2.92;;;2.60;;
4517;SDS011;2271;49.464;11.070;2023-08-30T13:02:49;3.15;;;2.75;;
4517;SDS011;2271;49.464;11.070;2023-08-30T13:05:14;8.52;;;2.88;;
4517;SDS011;2271;49.464;11.070;2023-08-30T13:07:41;3.65;;;2.80;;
4517;SDS011;2271;49.464;11.070;2023-08-30T13:10:07;2.60;;;2.38;;
4517;SDS011;2271;49.464;11.070;2023-08-30T13:12:33;3.00;;;2.50;;
4517;SDS011;2271;49.464;11.070;2023-08-30T13:14:58;2.95;;;2.63;;
4517;SDS011;2271;49.464;11.070;2023-08-30T13:17:24;3.78;;;3.15;;
4517;SDS011;2271;49.464;11.070;2023-08-30T13:19:50;3.90;;;3.13;;
4517;SDS011;2271;49.464;11.070;2023-08-30T13:22:16;3.92;;;3.40;;
4517;SDS011;2271;49.464;11.070;2023-08-30T13:24:42;5.68;;;3.55;;
4517;SDS011;2271;49.464;11.070;2023-08-30T13:27:08;3.97;;;2.92;;
4517;SDS011;2271;49.464;11.070;2023-08-30T13:29:35;3.33;;;2.80;;
4517;SDS011;2271;49.464;11.070;2023-08-30T13:32:01;3.72;;;3.22;;
4517;SDS011;2271;49.464;11.070;2023-08-30T13:34:26;3.55;;;3.25;;
4517;SDS011;2271;49.464;11.070;2023-08-30T13:36:52;5.25;;;3.38;;
4517;SDS011;2271;49.464;11.070;2023-08-30T13:39:18;2.75;;;2.53;;
4517;SDS011;2271;49.464;11.070;2023-08-30T13:41:45;2.28;;;2.08;;
4517;SDS011;2271;49.464;11.070;2023-08-30T13:44:11;3.42;;;3.13;;
4517;SDS011;2271;49.464;11.070;2023-08-30T13:46:37;2.35;;;2.10;;
4517;SDS011;2271;49.464;11.070;2023-08-30T13:49:03;4.40;;;2.83;;
4517;SDS011;2271;49.464;11.070;2023-08-30T13:51:29;8.63;;;2.67;;
4517;SDS011;2271;49.464;11.070;2023-08-30T13:53:55;2.53;;;2.33;;
4517;SDS011;2271;49.464;11.070;2023-08-30T13:56:21;6.68;;;2.45;;
4517;SDS011;2271;49.464;11.070;2023-08-30T13:58:48;2.50;;;2.10;;
4517;SDS011;2271;49.464;11.070;2023-08-30T14:01:14;2.50;;;2.30;;
4517;SDS011;2271;49.464;11.070;2023-08-30T14:03:40;2.75;;;2.53;;
4517;SDS011;2271;49.464;11.070;2023-08-30T14:06:06;3.15;;;2.60;;
4517;SDS011;2271;49.464;11.070;2023-08-30T14:08:31;5.85;;;3.20;;
4517;SDS011;2271;49.464;11.070;2023-08-30T14:10:57;2.45;;;2.20;;
4517;SDS011;2271;49.464;11.070;2023-08-30T14:13:23;3.28;;;2.78;;
4517;SDS011;2271;49.464;11.070;2023-08-30T14:15:49;2.60;;;2.40;;
4517;SDS011;2271;49.464;11.070;2023-08-30T14:18:15;2.85;;;2.50;;
4517;SDS011;2271;49.464;11.070;2023-08-30T14:20:41;3.42;;;2.47;;
4517;SDS011;2271;49.464;11.070;2023-08-30T14:23:07;3.60;;;2.60;;
4517;SDS011;2271;49.464;11.070;2023-08-30T14:25:33;3.85;;;2.60;;
4517;SDS011;2271;49.464;11.070;2023-08-30T14:28:00;2.78;;;2.58;;
4517;SDS011;2271;49.464;11.070;2023-08-30T14:30:26;4.90;;;2.88;;
4517;SDS011;2271;49.464;11.070;2023-08-30T14:32:52;2.60;;;2.40;;
4517;SDS011;2271;49.464;11.070;2023-08-30T14:35:18;4.13;;;2.75;;
4517;SDS011;2271;49.464;11.070;2023-08-30T14:37:48;4.38;;;2.58;;
4517;SDS011;2271;49.464;11.070;2023-08-30T14:40:15;3.38;;;2.67;;
4517;SDS011;2271;49.464;11.070;2023-08-30T14:42:41;2.58;;;2.15;;
4517;SDS011;2271;49.464;11.070;2023-08-30T14:45:07;4.45;;;3.10;;
4517;SDS011;2271;49.464;11.070;2023-08-30T14:47:33;2.90;;;2.70;;
4517;SDS011;2271;49.464;11.070;2023-08-30T14:49:59;3.08;;;2.60;;
4517;SDS011;2271;49.464;11.070;2023-08-30T14:52:28;2.65;;;2.40;;
4517;SDS011;2271;49.464;11.070;2023-08-30T14:54:54;2.95;;;2.45;;
4517;SDS011;2271;49.464;11.070;2023-08-30T14:57:20;2.85;;;2.53;;
4517;SDS011;2271;49.464;11.070;2023-08-30T14:59:46;3.03;;;1.88;;
4517;SDS011;2271;49.464;11.070;2023-08-30T15:02:12;5.20;;;2.35;;
4517;SDS011;2271;49.464;11.070;2023-08-30T15:04:39;3.05;;;2.28;;
4517;SDS011;2271;49.464;11.070;2023-08-30T15:07:05;2.40;;;2.20;;
4517;SDS011;2271;49.464;11.070;2023-08-30T15:09:31;5.95;;;2.60;;
4517;SDS011;2271;49.464;11.070;2023-08-30T15:11:56;2.47;;;2.28;;
4517;SDS011;2271;49.464;11.070;2023-08-30T15:14:23;4.38;;;2.58;;